createdAt,value
2017-07-10T00:07:03.000Z,25.65
2017-07-10T00:17:02.000Z,25.61
2017-07-10T00:27:02.000Z,25.59
2017-07-10T00:47:02.000Z,25.6
2017-07-10T00:57:02.000Z,25.53
2017-07-10T01:07:02.000Z,25.49
2017-07-10T01:17:02.000Z,25.45
2017-07-10T01:27:02.000Z,25.43
2017-07-10T01:37:02.000Z,25.4
2017-07-10T01:47:05.000Z,25.38
2017-07-10T01:57:02.000Z,25.36
2017-07-10T02:07:02.000Z,25.34
2017-07-10T02:17:02.000Z,25.31
2017-07-10T02:27:02.000Z,25.28
2017-07-10T02:47:02.000Z,25.23
2017-07-10T02:57:02.000Z,25.2
2017-07-10T03:07:02.000Z,25.18
2017-07-10T03:17:02.000Z,25.15
2017-07-10T03:27:02.000Z,25.13
2017-07-10T03:37:02.000Z,25.11
2017-07-10T03:47:02.000Z,25.09
2017-07-10T03:57:02.000Z,25.07
2017-07-10T04:07:02.000Z,25.07
2017-07-10T04:17:02.000Z,25.05
2017-07-10T04:27:02.000Z,25.03
2017-07-10T04:37:02.000Z,25.02
2017-07-10T04:47:02.000Z,25.01
2017-07-10T04:57:02.000Z,24.99
2017-07-10T05:07:02.000Z,24.96
2017-07-10T05:17:02.000Z,24.95
2017-07-10T05:27:02.000Z,24.93
2017-07-10T05:37:02.000Z,24.93
2017-07-10T05:47:02.000Z,24.89
2017-07-10T05:57:02.000Z,24.88
2017-07-10T06:07:02.000Z,24.87
2017-07-10T06:17:02.000Z,24.86
2017-07-10T06:27:02.000Z,24.84
2017-07-10T06:37:02.000Z,24.84
2017-07-10T06:57:04.000Z,24.88
2017-07-10T07:07:03.000Z,24.91
2017-07-10T07:17:03.000Z,24.92
2017-07-10T07:27:03.000Z,24.91
2017-07-10T07:37:03.000Z,24.91
2017-07-10T07:47:03.000Z,24.9
2017-07-10T07:57:03.000Z,24.9
2017-07-10T08:07:03.000Z,24.91
2017-07-10T08:17:03.000Z,24.9
2017-07-10T08:27:03.000Z,24.93
2017-07-10T08:37:03.000Z,24.93
2017-07-10T08:47:05.000Z,24.91
2017-07-10T09:07:03.000Z,24.96
2017-07-10T09:17:03.000Z,25.01
2017-07-10T09:27:03.000Z,25.09
2017-07-10T09:37:03.000Z,25.13
2017-07-10T09:47:03.000Z,25.21
2017-07-10T09:57:03.000Z,25.3
2017-07-10T10:07:03.000Z,25.44
2017-07-10T10:17:03.000Z,25.65
2017-07-10T10:27:04.000Z,25.74
2017-07-10T10:37:03.000Z,25.76
2017-07-10T10:47:03.000Z,25.74
2017-07-10T10:57:03.000Z,25.8
2017-07-10T11:07:03.000Z,25.82
2017-07-10T11:17:03.000Z,25.82
2017-07-10T11:27:03.000Z,25.95
2017-07-10T11:37:07.000Z,26
2017-07-10T11:47:03.000Z,25.99
2017-07-10T11:57:03.000Z,25.97
2017-07-10T12:07:03.000Z,25.93
2017-07-10T12:17:03.000Z,26.02
2017-07-10T12:27:03.000Z,26.2
2017-07-10T12:37:03.000Z,26.17
2017-07-10T12:47:03.000Z,26.13
2017-07-10T12:57:03.000Z,26.24
2017-07-10T13:07:03.000Z,26.24
2017-07-10T13:17:03.000Z,26.06
2017-07-10T13:27:03.000Z,26.1
2017-07-10T13:37:03.000Z,26.18
2017-07-10T13:47:03.000Z,26.4
2017-07-10T13:57:03.000Z,26.42
2017-07-10T14:07:03.000Z,26.46
2017-07-10T14:17:03.000Z,26.51
2017-07-10T14:37:03.000Z,26.46
2017-07-10T14:47:03.000Z,26.41
2017-07-10T14:57:03.000Z,26.42
2017-07-10T15:07:04.000Z,26.35
2017-07-10T15:17:04.000Z,26.24
2017-07-10T15:27:04.000Z,26.33
2017-07-10T15:37:04.000Z,26.44
2017-07-10T15:47:04.000Z,26.3
2017-07-10T15:57:04.000Z,26.29
2017-07-10T16:07:06.000Z,26.4
2017-07-10T16:17:04.000Z,26.36
2017-07-10T16:27:04.000Z,26.27
2017-07-10T16:37:04.000Z,26.28
2017-07-10T16:47:04.000Z,26.21
2017-07-10T16:57:04.000Z,26.13
2017-07-10T17:07:04.000Z,26.16
2017-07-10T17:17:05.000Z,26.25
2017-07-10T17:27:04.000Z,26.31
2017-07-10T17:37:04.000Z,26.34
2017-07-10T17:57:04.000Z,26.32
2017-07-10T18:07:04.000Z,26.29
2017-07-10T18:17:04.000Z,26.27
2017-07-10T18:27:05.000Z,26.21
2017-07-10T18:37:04.000Z,26.24
2017-07-10T18:47:05.000Z,26.23
2017-07-10T18:57:04.000Z,26.16
2017-07-10T19:07:07.000Z,26.18
2017-07-10T19:17:04.000Z,26.13
2017-07-10T19:37:04.000Z,26.08
2017-07-10T19:47:04.000Z,26.06
2017-07-10T20:07:04.000Z,26.05
2017-07-10T20:17:05.000Z,26.03
2017-07-10T20:27:04.000Z,26.02
2017-07-10T20:37:04.000Z,26.01
2017-07-10T20:47:04.000Z,25.96
2017-07-10T20:57:04.000Z,25.94
2017-07-10T21:07:04.000Z,25.9
2017-07-10T21:17:04.000Z,25.85
2017-07-10T21:27:04.000Z,25.81
2017-07-10T21:37:04.000Z,25.77
2017-07-10T21:47:04.000Z,25.73
2017-07-10T21:57:04.000Z,25.71
2017-07-10T22:07:07.000Z,25.66
2017-07-10T22:17:04.000Z,25.65
2017-07-10T22:27:04.000Z,25.6
2017-07-10T22:37:04.000Z,25.57
2017-07-10T22:47:04.000Z,25.53
2017-07-10T22:57:04.000Z,25.49
2017-07-10T23:07:05.000Z,25.45
2017-07-10T23:17:05.000Z,25.41
2017-07-10T23:27:05.000Z,25.38
2017-07-10T23:37:05.000Z,25.34
2017-07-10T23:47:07.000Z,25.32
2017-07-10T23:57:05.000Z,25.28
